AirNav   Free Bose QuietComfort 20
 
 602 users online  

73MO SSM Health St Mary's Hospital-St Louis Heliport
St Louis, Missouri, USA

GOING TO ST LOUIS?


FAA INFORMATION EFFECTIVE 05 DECEMBER 2019

Location

FAA Identifier: 73MO
Lat/Long: 38-37-59.8100N 090-18-41.4100W
38-37.996833N 090-18.690167W
38.6332806,-90.3115028
(estimated)
Elevation: 688 ft. / 210 m (estimated)
Variation: 02E (1985)
Time zone: UTC -6 (UTC -5 during Daylight Saving Time)
Zip code: 63117

Heliport Operations

Heliport use: Private use, MEDICAL.
Activation date: 07/1982
Control tower: no
ARTCC: KANSAS CITY CENTER
FSS: SAINT LOUIS FLIGHT SERVICE STATION
Attendance: UNATNDD
Segmented circle: no

Heliport Communications

WX ASOS at STL (7 nm N): PHONE 314-890-4790
WX ASOS at CPS (8 nm SE): PHONE 618-332-0001
WX ASOS at SUS (16 nm W): 134.8 (314-890-7255)
WX ASOS at SET (19 nm N): 118.075 (636-250-4590)
WX AWOS-3 at ALN (20 nm NE): 128.0 (618-259-7231)

Nearby radio navigation aids

VOR radial/distance  VOR name  Freq  Var
STLr149/15.8ST LOUIS VORTAC117.4001E
TOYr247/19.5TROY VORTAC116.0004E
FTZr092/31.1FORISTELL VORTAC110.8005E

 
NDB name  Hdg/Dist  Freq  Var  ID
ZUMAY190/9.440401WST ... -
EAVES104/11.422701WFZ ..-. --..
OBLIO144/12.633801WLM .-.. --
ACORE300/13.635000ECP -.-. .--.
CIVIC MEMORIAL219/19.626301WCVM -.-. ...- --

Heliport Services

Runway Information

Helipad H1

Dimensions: 48 x 48 ft. / 15 x 15 m
Surface: concrete
Latitude: 38-37.996833N
Longitude: 090-18.690167W
Elevation: 688.0 ft.
Traffic pattern: leftleft

Heliport Ownership and Management from official FAA records

Ownership: Privately-owned
Owner: SSM HEALTH CARE ST. LOUIS
6420 CLAYTON RD
ST LOUIS, MO 63117
Phone (314) 989-2155
Manager: LESLIE THORNBURG
1015 CORPORATE SQ DR., SUITE 110
ST LOUIS, MO 63132
Phone (314) 989-6134
ADDITIONAL CONTACT: LESLIE THORNBURG, 314-989-6134.

Additional Remarks

A52-H1 ANTS & BLDGS AROUND PAD.
A33 ROOFTOP HELIPORT.
OWNER DOES NOT WANT ARPT CHARTED.
FOR CD CTC ST LOUIS APCH AT 314-890-1018.

Instrument Procedures

There are no published instrument procedures at 73MO.

Some nearby airports with instrument procedures:

KSTL - St Louis Lambert International Airport (7 nm N)
KCPS - St Louis Downtown Airport (8 nm SE)
1H0 - Creve Coeur Airport (11 nm NW)
KSUS - Spirit of St Louis Airport (16 nm W)
KSET - St Charles County Smartt Airport (19 nm N)
KALN - St Louis Regional Airport (20 nm NE)
 
Loc | Ops | Rwys | IFR | FBO | Links
Com | Nav | Svcs | Stats | Notes

Kansas City Aviation Department
 
Area around 73MO (SSM Health St Mary's Hospital-St Louis Heliport)
 
Road maps at: MapQuest Bing Google
 
Aerial photo
No photo
 
Sectional chart

 
Airport distance calculator
Flying to SSM Health St Mary's Hospital-St Louis Heliport? Find the distance to fly.

From to 73MO

Sunrise and sunset
Times for 15-Dec-2019
 Local
(UTC-6)
 Zulu
(UTC)
Morning civil twilight06:4312:43
Sunrise07:1313:13
Sunset16:4022:40
Evening civil twilight17:1023:10

Current date and time
Zulu (UTC)  16-Dec-2019 04:16:27
Local (UTC-6)  15-Dec-2019 22:16:27
 
METAR
KSTL 
7nm N 
160351Z 35006KT 3SM -FZDZ BR OVC007 M02/M04 A3003 RMK AO2 SLP182 P0000 T10221039 $
KCPS 
9nm SE 
160353Z 01008KT 3SM BR OVC005 M02/M03 A3003 RMK AO2 SLP172 I1002 T10221033
KSUS 
16nm W 
160354Z 36005KT 3SM BR OVC005 M02/M03 A3004 RMK AO2 SLP180 T10221033
KSET 
19nm N 
160354Z AUTO A3004 RMK AO2 SLPNO PWINO FZRANO $
KALN 
20nm NE 
160350Z 35006KT 3SM BR OVC005 M03/M03 A3004
TAF
KSTL 
7nm N 
152233Z 1523/1624 07008KT 3SM -SN SCT007 OVC015 TEMPO 1523/1524 1 1/2SM -SN BR OVC008 FM160000 08009KT 2SM -FZDZSN BR OVC007 FM160300 03008KT 4SM -FZDZ BR OVC004 FM161500 01009KT 2SM -SN BR OVC005
KCPS 
9nm SE 
152145Z 1522/1618 08008KT 4SM -SN OVC025 TEMPO 1522/1524 2SM -SN BR OVC010 FM160000 08008KT 2SM -FZDZSN BR OVC007 FM160300 03007KT 4SM -FZDZ BR OVC004 FM161500 01008KT 2SM -SN BR OVC005
KSUS 
16nm W 
152233Z 1523/1618 07008KT 3SM -SN SCT007 OVC015 TEMPO 1523/1524 1 1/2SM -SN BR OVC008 FM160000 08007KT 2SM -FZDZSN BR OVC007 FM160300 03007KT 4SM -FZDZ BR OVC004 FM161500 01007KT 2SM -SN BR OVC005
NOTAMs
Click for the latest NOTAMs
NOTAMs are issued by the DoD/FAA and will open in a separate window not controlled by AirNav.

 

 
 

Would you like to see your business listed on this page?

 If your business provides an interesting product or service to pilots, flight crews, aircraft, or users of the SSM Health St Mary's Hospital-St Louis Heliport, you should consider listing it here.  To start the listing process, click on the button below
 
Add a business
 

Other Pages about SSM Health St Mary's Hospital-St Louis Heliport

Update a link
 
Copyright © AirNav, LLC. All rights reserved. Privacy Policy  Contact